Time,TemperatureF,DewpointF,PressureIn,WindDirection,WindDirectionDegrees,WindSpeedMPH,WindSpeedGustMPH,Humidity,HourlyPrecipIn,Conditions,Clouds,dailyrainin,SoftwareType,DateUTC
2013-07-13 10:00:00,86.6,80.1,29.83,North,0,0.0,1.0,81,0.00,,---,0.01,VWS V14.01,2013-07-13 15:00:00,
2013-07-13 10:39:00,90.0,81.8,29.83,ESE,122,0.0,0.0,77,0.00,,---,0.01,VWS V14.01,2013-07-13 15:39:00,
2013-07-13 10:40:00,90.0,81.8,29.83,ESE,122,0.0,0.0,77,0.00,,---,0.01,VWS V14.01,2013-07-13 15:40:00,
2013-07-13 10:45:00,90.6,81.6,29.84,ESE,122,0.0,0.0,75,0.00,,---,0.01,VWS V14.01,2013-07-13 15:45:00,
2013-07-13 10:49:00,90.3,80.9,29.84,ESE,122,0.0,0.0,74,0.00,,---,0.01,VWS V14.01,2013-07-13 15:49:00,
2013-07-13 10:54:00,88.6,78.0,29.84,ESE,111,0.0,0.0,71,0.00,,---,0.01,VWS V14.01,2013-07-13 15:54:00,
2013-07-13 10:59:00,88.2,80.5,29.84,ESE,111,0.0,0.0,78,0.00,,---,0.01,VWS V14.01,2013-07-13 15:59:00,
2013-07-13 11:04:00,88.0,80.7,29.85,ESE,112,0.0,0.0,79,0.00,,---,0.01,VWS V14.01,2013-07-13 16:04:00,
2013-07-13 11:09:00,88.7,81.0,29.84,ESE,112,0.0,0.0,78,0.00,,---,0.01,VWS V14.01,2013-07-13 16:09:00,
2013-07-13 11:14:00,89.8,81.2,29.84,ESE,109,0.0,0.0,76,0.00,,---,0.01,VWS V14.01,2013-07-13 16:14:00,
2013-07-13 11:19:00,90.8,82.6,29.84,ESE,109,0.0,0.0,77,0.00,,---,0.01,VWS V14.01,2013-07-13 16:19:00,
2013-07-13 11:24:00,90.1,81.5,29.84,ESE,109,0.0,0.0,76,0.00,,---,0.01,VWS V14.01,2013-07-13 16:24:00,
2013-07-13 11:29:00,89.2,81.1,29.84,ESE,108,0.0,0.0,77,0.00,,---,0.01,VWS V14.01,2013-07-13 16:29:00,
2013-07-13 11:34:00,89.4,82.0,29.84,ESE,109,0.0,0.0,79,0.00,,---,0.01,VWS V14.01,2013-07-13 16:34:00,
2013-07-13 11:39:00,89.9,81.7,29.84,SSE,157,0.0,0.0,77,0.00,,---,0.01,VWS V14.01,2013-07-13 16:39:00,
2013-07-13 11:44:00,89.6,81.4,29.84,SSE,156,0.0,0.0,77,0.00,,---,0.01,VWS V14.01,2013-07-13 16:44:00,
2013-07-13 11:49:00,89.2,81.8,29.84,SSE,157,0.0,0.0,79,0.00,,---,0.01,VWS V14.01,2013-07-13 16:49:00,
2013-07-13 11:54:00,89.5,82.5,29.84,SSE,158,0.0,0.0,80,0.00,,---,0.01,VWS V14.01,2013-07-13 16:54:00,
2013-07-13 11:59:00,89.4,81.2,29.84,SE,145,0.0,0.0,77,0.00,,---,0.01,VWS V14.01,2013-07-13 16:59:00,
2013-07-13 12:04:00,90.0,80.2,29.84,SE,145,0.0,0.0,73,0.00,,---,0.01,VWS V14.01,2013-07-13 17:04:00,
2013-07-13 12:09:00,90.9,82.7,29.84,SW,231,0.0,0.0,77,0.00,,---,0.01,VWS V14.01,2013-07-13 17:09:00,
2013-07-13 12:14:00,91.4,80.7,29.84,WNW,301,0.0,1.0,71,0.00,,---,0.01,VWS V14.01,2013-07-13 17:14:00,
2013-07-13 12:19:00,91.1,80.8,29.83,WNW,301,0.0,1.0,72,0.00,,---,0.01,VWS V14.01,2013-07-13 17:19:00,
2013-07-13 12:24:00,90.2,81.6,29.83,WNW,301,0.0,1.0,76,0.00,,---,0.01,VWS V14.01,2013-07-13 17:24:00,
2013-07-13 12:29:00,89.5,82.1,29.83,WNW,301,0.0,1.0,79,0.00,,---,0.01,VWS V14.01,2013-07-13 17:29:00,
2013-07-13 12:34:00,89.7,81.9,29.83,WNW,301,0.0,0.0,78,0.00,,---,0.01,VWS V14.01,2013-07-13 17:34:00,
2013-07-13 12:39:00,89.6,82.2,29.83,WNW,301,0.0,0.0,79,0.00,,---,0.01,VWS V14.01,2013-07-13 17:39:00,
2013-07-13 12:44:00,88.4,81.4,29.83,WNW,301,0.0,0.0,80,0.00,,---,0.01,VWS V14.01,2013-07-13 17:44:00,
2013-07-13 12:49:00,87.3,81.5,29.83,WNW,301,0.0,0.0,83,0.00,,---,0.01,VWS V14.01,2013-07-13 17:49:00,
2013-07-13 12:54:00,86.0,81.0,29.83,WNW,301,0.0,0.0,85,0.03,,---,0.04,VWS V14.01,2013-07-13 17:54:00,
2013-07-13 12:59:00,84.3,79.3,29.82,WNW,300,0.0,0.0,85,0.10,,---,0.11,VWS V14.01,2013-07-13 17:59:00,
2013-07-13 13:04:00,82.2,77.2,29.82,WNW,299,0.0,0.0,85,0.13,,---,0.14,VWS V14.01,2013-07-13 18:04:00,
2013-07-13 13:09:00,80.8,77.6,29.82,WNW,300,0.0,0.0,90,0.19,,---,0.20,VWS V14.01,2013-07-13 18:09:00,
2013-07-13 13:14:00,80.2,77.3,29.82,West,260,0.0,1.0,91,0.21,,---,0.22,VWS V14.01,2013-07-13 18:14:00,
2013-07-13 13:19:00,81.3,79.7,29.82,SW,225,0.0,1.0,95,0.21,,---,0.22,VWS V14.01,2013-07-13 18:19:00,
2013-07-13 13:24:00,82.3,80.7,29.82,SW,225,0.0,1.0,95,0.21,,---,0.22,VWS V14.01,2013-07-13 18:24:00,
2013-07-13 13:29:00,83.7,82.1,29.82,SW,218,0.0,1.0,95,0.21,,---,0.22,VWS V14.01,2013-07-13 18:29:00,
2013-07-13 13:34:00,84.8,81.9,29.82,SSW,207,0.0,1.0,91,0.21,,---,0.22,VWS V14.01,2013-07-13 18:34:00,
2013-07-13 13:39:00,85.4,80.7,29.82,SW,221,0.0,1.0,86,0.21,,---,0.22,VWS V14.01,2013-07-13 18:39:00,
2013-07-13 13:44:00,85.8,80.8,29.82,SW,229,0.0,1.0,85,0.21,,---,0.22,VWS V14.01,2013-07-13 18:44:00,
2013-07-13 13:49:00,84.8,78.7,29.82,SW,230,0.0,1.0,82,0.21,,---,0.22,VWS V14.01,2013-07-13 18:49:00,
2013-07-13 13:54:00,83.7,77.6,29.81,SW,229,0.0,1.0,82,0.21,,---,0.22,VWS V14.01,2013-07-13 18:54:00,
2013-07-13 13:59:00,82.5,78.2,29.80,SW,231,0.0,1.0,87,0.21,,---,0.22,VWS V14.01,2013-07-13 18:59:00,
2013-07-13 14:04:00,82.0,78.8,29.81,SW,231,0.0,0.0,90,0.09,,---,0.22,VWS V14.01,2013-07-13 19:04:00,
2013-07-13 14:09:00,81.7,78.8,29.81,SW,231,0.0,0.0,91,0.09,,---,0.22,VWS V14.01,2013-07-13 19:09:00,
2013-07-13 14:14:00,81.5,79.3,29.81,SW,231,0.0,0.0,93,0.09,,---,0.22,VWS V14.01,2013-07-13 19:14:00,
2013-07-13 14:19:00,81.3,79.4,29.81,SW,231,0.0,0.0,94,0.09,,---,0.22,VWS V14.01,2013-07-13 19:19:00,
2013-07-13 14:24:00,81.2,79.3,29.80,SW,231,0.0,0.0,94,0.09,,---,0.22,VWS V14.01,2013-07-13 19:24:00,
2013-07-13 14:29:00,81.0,79.4,29.81,SW,215,0.0,0.0,95,0.09,,---,0.22,VWS V14.01,2013-07-13 19:29:00,
2013-07-13 14:34:00,80.4,78.5,29.82,ENE,75,3.0,3.0,94,0.00,,---,0.22,VWS V14.01,2013-07-13 19:34:00,
2013-07-13 14:39:00,79.3,76.8,29.80,ENE,77,0.0,3.0,92,0.01,,---,0.23,VWS V14.01,2013-07-13 19:39:00,
2013-07-13 14:44:00,78.8,76.9,29.80,ENE,77,0.0,3.0,94,0.03,,---,0.25,VWS V14.01,2013-07-13 19:44:00,
2013-07-13 14:49:00,78.1,76.2,29.82,ENE,78,0.0,3.0,94,0.05,,---,0.27,VWS V14.01,2013-07-13 19:49:00,
2013-07-13 14:54:00,77.0,74.8,29.82,ENE,77,0.0,3.0,93,0.07,,---,0.29,VWS V14.01,2013-07-13 19:54:00,
2013-07-13 14:59:00,76.2,74.3,29.80,ENE,77,0.0,3.0,94,0.09,,---,0.31,VWS V14.01,2013-07-13 19:59:00,
2013-07-13 15:04:00,75.9,74.4,29.79,ENE,78,0.0,0.0,95,0.10,,---,0.32,VWS V14.01,2013-07-13 20:04:00,
2013-07-13 15:09:00,75.4,73.9,29.81,ENE,78,0.0,0.0,95,0.10,,---,0.32,VWS V14.01,2013-07-13 20:09:00,
2013-07-13 15:14:00,74.9,73.4,29.82,ENE,77,0.0,0.0,95,0.10,,---,0.32,VWS V14.01,2013-07-13 20:14:00,
2013-07-13 15:19:00,74.6,73.4,29.82,ENE,77,0.0,1.0,96,0.10,,---,0.32,VWS V14.01,2013-07-13 20:19:00,
2013-07-13 15:24:00,74.5,73.3,29.82,ENE,77,0.0,1.0,96,0.10,,---,0.32,VWS V14.01,2013-07-13 20:24:00,
2013-07-13 15:29:00,74.5,73.6,29.82,ENE,77,0.0,1.0,97,0.10,,---,0.32,VWS V14.01,2013-07-13 20:29:00,
2013-07-13 15:34:00,74.6,73.7,29.81,ENE,77,0.0,0.0,97,0.10,,---,0.32,VWS V14.01,2013-07-13 20:34:00,
2013-07-13 15:39:00,74.7,73.8,29.82,ENE,78,0.0,0.0,97,0.10,,---,0.32,VWS V14.01,2013-07-13 20:39:00,
2013-07-13 15:44:00,74.7,73.8,29.82,ENE,77,0.0,0.0,97,0.10,,---,0.32,VWS V14.01,2013-07-13 20:44:00,
2013-07-13 15:49:00,74.7,73.8,29.82,ENE,77,0.0,0.0,97,0.10,,---,0.32,VWS V14.01,2013-07-13 20:49:00,
2013-07-13 15:54:00,74.7,73.8,29.81,ENE,77,0.0,0.0,97,0.10,,---,0.32,VWS V14.01,2013-07-13 20:54:00,
2013-07-13 15:59:00,74.7,74.1,29.81,ENE,77,0.0,0.0,98,0.10,,---,0.32,VWS V14.01,2013-07-13 20:59:00,
2013-07-13 16:04:00,74.8,74.2,29.81,ENE,77,0.0,0.0,98,0.00,,---,0.32,VWS V14.01,2013-07-13 21:04:00,
2013-07-13 16:09:00,74.8,74.2,29.80,ENE,77,0.0,0.0,98,0.00,,---,0.32,VWS V14.01,2013-07-13 21:09:00,
2013-07-13 16:14:00,74.8,74.2,29.81,ENE,77,0.0,0.0,98,0.00,,---,0.32,VWS V14.01,2013-07-13 21:14:00,
2013-07-13 16:19:00,74.8,74.2,29.83,ENE,77,0.0,0.0,98,0.00,,---,0.32,VWS V14.01,2013-07-13 21:19:00,
2013-07-13 16:24:00,74.7,74.1,29.83,ENE,77,0.0,0.0,98,0.00,,---,0.32,VWS V14.01,2013-07-13 21:24:00,
2013-07-13 16:29:00,74.1,73.2,29.83,ENE,78,0.0,0.0,97,0.00,,---,0.32,VWS V14.01,2013-07-13 21:29:00,
2013-07-13 16:34:00,74.0,73.4,29.82,ENE,77,0.0,0.0,98,0.00,,---,0.32,VWS V14.01,2013-07-13 21:34:00,
2013-07-13 16:39:00,73.9,73.3,29.82,ENE,77,0.0,0.0,98,0.00,,---,0.32,VWS V14.01,2013-07-13 21:39:00,
2013-07-13 16:44:00,73.7,73.1,29.83,ENE,77,0.0,0.0,98,0.00,,---,0.32,VWS V14.01,2013-07-13 21:44:00,
2013-07-13 16:49:00,73.7,73.1,29.83,ENE,77,0.0,0.0,98,0.00,,---,0.32,VWS V14.01,2013-07-13 21:49:00,
2013-07-13 16:54:00,73.9,73.3,29.84,ENE,78,0.0,0.0,98,0.00,,---,0.32,VWS V14.01,2013-07-13 21:54:00,
2013-07-13 16:59:00,73.5,72.9,29.83,West,260,0.0,1.0,98,0.00,,---,0.32,VWS V14.01,2013-07-13 21:59:00,
2013-07-13 17:04:00,73.0,72.1,29.83,West,260,0.0,0.0,97,0.00,,---,0.32,VWS V14.01,2013-07-13 22:04:00,
2013-07-13 17:09:00,72.8,71.9,29.83,West,259,0.0,0.0,97,0.00,,---,0.32,VWS V14.01,2013-07-13 22:09:00,
2013-07-13 17:14:00,72.8,72.2,29.83,West,260,0.0,0.0,98,0.00,,---,0.32,VWS V14.01,2013-07-13 22:14:00,
2013-07-13 17:19:00,72.4,71.5,29.83,West,260,0.0,0.0,97,0.00,,---,0.32,VWS V14.01,2013-07-13 22:19:00,
2013-07-13 17:24:00,72.1,71.2,29.83,WNW,291,0.0,1.0,97,0.00,,---,0.32,VWS V14.01,2013-07-13 22:24:00,
2013-07-13 17:29:00,72.3,71.7,29.83,WNW,290,0.0,1.0,98,0.00,,---,0.32,VWS V14.01,2013-07-13 22:29:00,
2013-07-13 17:34:00,72.3,71.7,29.83,WNW,291,0.0,0.0,98,0.00,,---,0.32,VWS V14.01,2013-07-13 22:34:00,
2013-07-13 17:39:00,72.2,71.6,29.83,WNW,291,0.0,0.0,98,0.00,,---,0.32,VWS V14.01,2013-07-13 22:39:00,
2013-07-13 17:44:00,72.1,71.5,29.84,WNW,290,0.0,0.0,98,0.00,,---,0.32,VWS V14.01,2013-07-13 22:44:00,
2013-07-13 17:49:00,72.3,71.7,29.84,WNW,290,0.0,0.0,98,0.00,,---,0.32,VWS V14.01,2013-07-13 22:49:00,
2013-07-13 17:54:00,72.4,71.8,29.84,WNW,291,0.0,0.0,98,0.00,,---,0.32,VWS V14.01,2013-07-13 22:54:00,
2013-07-13 17:59:00,72.3,71.7,29.84,WNW,291,0.0,0.0,98,0.00,,---,0.32,VWS V14.01,2013-07-13 22:59:00,
2013-07-13 18:04:00,72.3,71.7,29.83,WNW,290,0.0,0.0,98,0.00,,---,0.32,VWS V14.01,2013-07-13 23:04:00,
2013-07-13 18:09:00,72.3,71.7,29.82,WNW,291,0.0,0.0,98,0.01,,---,0.33,VWS V14.01,2013-07-13 23:09:00,
2013-07-13 18:14:00,72.1,71.5,29.82,WNW,291,0.0,0.0,98,0.01,,---,0.33,VWS V14.01,2013-07-13 23:14:00,
2013-07-13 18:19:00,71.9,71.3,29.81,WNW,291,0.0,0.0,98,0.01,,---,0.33,VWS V14.01,2013-07-13 23:19:00,
2013-07-13 18:24:00,71.8,71.2,29.80,WNW,291,0.0,0.0,98,0.01,,---,0.33,VWS V14.01,2013-07-13 23:24:00,
2013-07-13 18:29:00,71.7,71.1,29.79,WNW,291,0.0,0.0,98,0.01,,---,0.33,VWS V14.01,2013-07-13 23:29:00,
2013-07-13 18:34:00,71.8,71.2,29.78,WNW,290,0.0,0.0,98,0.01,,---,0.33,VWS V14.01,2013-07-13 23:34:00,
2013-07-13 18:39:00,71.7,71.1,29.77,WNW,289,0.0,0.0,98,0.01,,---,0.33,VWS V14.01,2013-07-13 23:39:00,
2013-07-13 18:44:00,71.8,71.2,29.78,ENE,58,0.0,0.0,98,0.01,,---,0.33,VWS V14.01,2013-07-13 23:44:00,
2013-07-13 18:49:00,71.8,71.2,29.80,WNW,297,0.0,1.0,98,0.01,,---,0.33,VWS V14.01,2013-07-13 23:49:00,
2013-07-13 18:54:00,71.6,71.0,29.80,ESE,117,0.0,2.0,98,0.01,,---,0.33,VWS V14.01,2013-07-13 23:54:00,
2013-07-13 18:59:00,71.5,70.9,29.79,ESE,105,0.0,2.0,98,0.01,,---,0.33,VWS V14.01,2013-07-13 23:59:00,
2013-07-13 19:04:00,71.5,70.9,29.79,West,260,1.0,1.0,98,0.01,,---,0.33,VWS V14.01,2013-07-14 00:04:00,
2013-07-13 19:09:00,71.5,70.9,29.79,West,263,0.0,1.0,98,0.01,,---,0.33,VWS V14.01,2013-07-14 00:09:00,
2013-07-13 19:14:00,71.7,71.1,29.80,West,263,0.0,1.0,98,0.01,,---,0.33,VWS V14.01,2013-07-14 00:14:00,
2013-07-13 19:19:00,71.7,71.1,29.80,West,262,0.0,1.0,98,0.01,,---,0.33,VWS V14.01,2013-07-14 00:19:00,
2013-07-13 19:25:00,71.9,71.3,29.81,West,263,0.0,1.0,98,0.01,,---,0.33,VWS V14.01,2013-07-14 00:25:00,
2013-07-13 19:30:00,72.0,71.7,29.81,West,263,0.0,1.0,99,0.01,,---,0.33,VWS V14.01,2013-07-14 00:30:00,
2013-07-13 19:35:00,72.1,71.8,29.82,WNW,283,0.0,1.0,99,0.00,,---,0.33,VWS V14.01,2013-07-14 00:35:00,
2013-07-13 19:40:00,72.1,71.8,29.82,SW,232,0.0,1.0,99,0.00,,---,0.33,VWS V14.01,2013-07-14 00:40:00,
2013-07-13 19:45:00,72.1,71.8,29.83,WNW,291,0.0,1.0,99,0.00,,---,0.33,VWS V14.01,2013-07-14 00:45:00,
2013-07-13 19:50:00,72.2,71.9,29.83,WNW,291,0.0,1.0,99,0.00,,---,0.33,VWS V14.01,2013-07-14 00:50:00,
2013-07-13 19:55:00,72.2,71.9,29.83,WNW,290,0.0,1.0,99,0.00,,---,0.33,VWS V14.01,2013-07-14 00:55:00,
2013-07-13 20:00:00,72.2,71.9,29.82,WNW,291,0.0,1.0,99,0.00,,---,0.33,VWS V14.01,2013-07-14 01:00:00,
2013-07-13 20:05:00,72.1,71.8,29.82,WNW,291,0.0,0.0,99,0.00,,---,0.33,VWS V14.01,2013-07-14 01:05:00,
2013-07-13 20:10:00,72.1,71.8,29.82,WNW,290,0.0,0.0,99,0.00,,---,0.33,VWS V14.01,2013-07-14 01:10:00,
2013-07-13 20:15:00,72.1,71.8,29.83,WNW,291,0.0,0.0,99,0.00,,---,0.33,VWS V14.01,2013-07-14 01:15:00,
2013-07-13 20:20:00,72.0,71.7,29.83,WNW,291,0.0,0.0,99,0.00,,---,0.33,VWS V14.01,2013-07-14 01:20:00,
2013-07-13 20:25:00,72.0,71.7,29.84,WNW,291,0.0,0.0,99,0.00,,---,0.33,VWS V14.01,2013-07-14 01:25:00,
2013-07-13 20:30:00,72.0,71.7,29.85,WNW,291,0.0,0.0,99,0.00,,---,0.33,VWS V14.01,2013-07-14 01:30:00,
2013-07-13 20:35:00,72.0,71.7,29.85,NW,315,0.0,0.0,99,0.00,,---,0.33,VWS V14.01,2013-07-14 01:35:00,
2013-07-13 20:40:00,72.1,71.8,29.85,WSW,252,0.0,0.0,99,0.00,,---,0.33,VWS V14.01,2013-07-14 01:40:00,
2013-07-13 20:45:00,72.0,71.7,29.85,WSW,252,0.0,0.0,99,0.00,,---,0.33,VWS V14.01,2013-07-14 01:45:00,
2013-07-13 20:50:00,72.0,71.7,29.85,WSW,252,0.0,0.0,99,0.00,,---,0.33,VWS V14.01,2013-07-14 01:50:00,
2013-07-13 20:55:00,72.0,71.7,29.85,WSW,252,0.0,0.0,99,0.00,,---,0.33,VWS V14.01,2013-07-14 01:55:00,
2013-07-13 21:00:00,72.0,71.7,29.85,WSW,252,0.0,0.0,99,0.00,,---,0.33,VWS V14.01,2013-07-14 02:00:00,
2013-07-13 21:05:00,71.9,71.6,29.84,WSW,252,0.0,0.0,99,0.00,,---,0.33,VWS V14.01,2013-07-14 02:05:00,
2013-07-13 21:10:00,71.9,71.6,29.84,WSW,252,0.0,0.0,99,0.00,,---,0.33,VWS V14.01,2013-07-14 02:10:00,
2013-07-13 21:15:00,71.7,71.4,29.84,WSW,252,0.0,0.0,99,0.00,,---,0.33,VWS V14.01,2013-07-14 02:15:00,
2013-07-13 21:20:00,71.7,71.4,29.83,WSW,252,0.0,0.0,99,0.00,,---,0.33,VWS V14.01,2013-07-14 02:20:00,
2013-07-13 21:25:00,71.5,71.2,29.84,WSW,252,0.0,0.0,99,0.00,,---,0.33,VWS V14.01,2013-07-14 02:25:00,
2013-07-13 21:30:00,71.4,71.1,29.84,WSW,252,0.0,0.0,99,0.00,,---,0.33,VWS V14.01,2013-07-14 02:30:00,
2013-07-13 21:35:00,71.4,71.1,29.84,WSW,252,0.0,0.0,99,0.00,,---,0.33,VWS V14.01,2013-07-14 02:35:00,
2013-07-13 21:40:00,71.4,71.1,29.85,WSW,252,0.0,0.0,99,0.00,,---,0.33,VWS V14.01,2013-07-14 02:40:00,
2013-07-13 21:45:00,71.2,70.9,29.85,WSW,252,0.0,0.0,99,0.00,,---,0.33,VWS V14.01,2013-07-14 02:45:00,
2013-07-13 21:50:00,71.1,70.8,29.85,WSW,252,0.0,0.0,99,0.00,,---,0.33,VWS V14.01,2013-07-14 02:50:00,
2013-07-13 21:55:00,71.0,70.7,29.85,WSW,252,0.0,0.0,99,0.00,,---,0.33,VWS V14.01,2013-07-14 02:55:00,
2013-07-13 22:00:00,70.9,70.6,29.85,WSW,252,0.0,0.0,99,0.00,,---,0.33,VWS V14.01,2013-07-14 03:00:00,
2013-07-13 22:05:00,70.7,70.4,29.85,WSW,252,0.0,0.0,99,0.00,,---,0.33,VWS V14.01,2013-07-14 03:05:00,
2013-07-13 22:10:00,70.7,70.4,29.85,WSW,252,0.0,0.0,99,0.00,,---,0.33,VWS V14.01,2013-07-14 03:10:00,
2013-07-13 22:15:00,70.8,70.5,29.86,WSW,252,0.0,0.0,99,0.00,,---,0.33,VWS V14.01,2013-07-14 03:15:00,
2013-07-13 22:21:00,70.7,70.4,29.86,WSW,252,0.0,0.0,99,0.00,,---,0.33,VWS V14.01,2013-07-14 03:21:00,
2013-07-13 22:26:00,70.8,70.5,29.86,WSW,252,0.0,0.0,99,0.00,,---,0.33,VWS V14.01,2013-07-14 03:26:00,
2013-07-13 22:31:00,71.0,70.7,29.87,WSW,252,0.0,0.0,99,0.00,,---,0.33,VWS V14.01,2013-07-14 03:31:00,
2013-07-13 22:36:00,71.1,70.8,29.87,WSW,252,0.0,0.0,99,0.00,,---,0.33,VWS V14.01,2013-07-14 03:36:00,
2013-07-13 22:41:00,71.1,70.8,29.87,WSW,252,0.0,0.0,99,0.00,,---,0.33,VWS V14.01,2013-07-14 03:41:00,
2013-07-13 22:46:00,71.0,70.7,29.88,WSW,252,0.0,0.0,99,0.00,,---,0.33,VWS V14.01,2013-07-14 03:46:00,
2013-07-13 22:51:00,71.0,70.7,29.88,WSW,252,0.0,0.0,99,0.00,,---,0.33,VWS V14.01,2013-07-14 03:51:00,
2013-07-13 22:56:00,70.9,70.6,29.88,WSW,252,0.0,0.0,99,0.00,,---,0.33,VWS V14.01,2013-07-14 03:56:00,
2013-07-13 23:01:00,70.9,70.6,29.88,WSW,252,0.0,0.0,99,0.00,,---,0.33,VWS V14.01,2013-07-14 04:01:00,
2013-07-13 23:06:00,71.2,70.9,29.88,WNW,291,0.0,1.0,99,0.00,,---,0.33,VWS V14.01,2013-07-14 04:06:00,
2013-07-13 23:11:00,71.4,71.1,29.88,WSW,252,0.0,1.0,99,0.00,,---,0.33,VWS V14.01,2013-07-14 04:11:00,
2013-07-13 23:16:00,71.5,71.2,29.88,WSW,252,0.0,1.0,99,0.00,,---,0.33,VWS V14.01,2013-07-14 04:16:00,
2013-07-13 23:21:00,71.5,71.2,29.88,WSW,252,0.0,1.0,99,0.00,,---,0.33,VWS V14.01,2013-07-14 04:21:00,
2013-07-13 23:26:00,71.6,71.3,29.88,WSW,252,0.0,1.0,99,0.00,,---,0.33,VWS V14.01,2013-07-14 04:26:00,
2013-07-13 23:31:00,71.5,71.2,29.88,WSW,252,0.0,1.0,99,0.00,,---,0.33,VWS V14.01,2013-07-14 04:31:00,
2013-07-13 23:36:00,71.4,71.1,29.88,WSW,252,0.0,0.0,99,0.00,,---,0.33,VWS V14.01,2013-07-14 04:36:00,
2013-07-13 23:41:00,71.4,71.1,29.88,WSW,252,0.0,0.0,99,0.00,,---,0.33,VWS V14.01,2013-07-14 04:41:00,
2013-07-13 23:46:00,71.3,71.0,29.88,WSW,252,0.0,0.0,99,0.00,,---,0.33,VWS V14.01,2013-07-14 04:46:00,
2013-07-13 23:52:00,71.3,71.0,29.88,WSW,252,0.0,0.0,99,0.00,,---,0.33,VWS V14.01,2013-07-14 04:52:00,
2013-07-13 23:57:00,71.4,71.1,29.88,WSW,252,0.0,0.0,99,0.00,,---,0.33,VWS V14.01,2013-07-14 04:57:00,